Virtual LH

Virtual LH. There's no better way to fly
Since 2013.



AIRPORT MAP

METAR AND TAF INFORMATION

METAR FOR LDPL
ADDS - METARS form results

(0651 UTC 26 March 2019)
Data provider http://aviationweather.gov/metar/data/
 
METAR text: LDPL 260630Z 06012KT 9999 FEW053 09/M01 Q1018 NOSIG
Conditions at: LDPL (PULA , HR) observed 0630 UTC 26 March 2019
Temperature: 9.0°C (48°F)
Dewpoint: -1.0°C (30°F) [RH = 49%]
Pressure (altimeter): 30.06 inches Hg (1018.0 mb)
Winds: from the ENE (60 degrees) at 14 MPH (12 knots; 6.2 m/s)
Visibility: 6 or more miles (10+ km)
Ceiling: at least 12,000 feet AGL
Clouds: few clouds at 5300 feet AGL
Weather: no significant weather observed at this time

METAR text: LDPL 260600Z 05015KT 9999 SCT053 08/M01 Q1018 NOSIG
Conditions at: LDPL (PULA , HR) observed 0600 UTC 26 March 2019
Temperature: 8.0°C (46°F)
Dewpoint: -1.0°C (30°F) [RH = 53%]
Pressure (altimeter): 30.06 inches Hg (1018.0 mb)
Winds: from the NE (50 degrees) at 17 MPH (15 knots; 7.7 m/s)
Visibility: 6 or more miles (10+ km)
Ceiling: at least 12,000 feet AGL
Clouds: scattered clouds at 5300 feet AGL
Weather: no significant weather observed at this time

Forecast for: LDPL (PULA , HR)
Text: TAF LDPL 260525Z 2606/2706 06015KT CAVOK TX13/2612Z TN07/2704Z
Forecast period: 0600 UTC 26 March 2019 to 0600 UTC 27 March 2019
Forecast type: FROM: standard forecast or significant change
Winds: from the ENE (60 degrees) at 17 MPH (15 knots; 7.7 m/s)
Visibility: 6 or more miles 10+ km)
Ceiling: unknown
Clouds: missing
Weather: no significant weather forecast for this period
Text: TEMPO 2618/2706 06015G25KT
Forecast period: 1800 UTC 26 March 2019 to 0600 UTC 27 March 2019
Forecast type: TEMPORARY: The following changes expected for less than half the time period
Winds: from the ENE (60 degrees) at 17 MPH (15 knots; 7.7 m/s)
gusting to 29 MPH (25 knots; 12.9 m/s)
Visibility: missing
Ceiling: unknown
Clouds: missing
Weather: no significant weather forecast for this period

RUNWAY INFORMATION

Runway 09 Runway length 9678 ft Runway width 148 ft
Runway elevation 169 ft Runway displaced threshold 0 ft Runway heading 88
Runway 27 Runway length 9678 ft Runway width 148 ft
Runway elevation 274 ft Runway displaced threshold 0 ft Runway heading 268

AIRPORT FREQUENCIES

Type APP Name APP Frequency 118.4 MHZ
Type TWR Name TWR Frequency 120 MHZ

AIRPORT NEAR NAVIGATION AIDS

Type NDB Name Cres Frequency 433 KHZ
Type NDB Name Kavran Frequency 265 KHZ
Type NDB Name Pula Frequency 352 KHZ
Type VOR-DME Name Pula Frequency 111250 KHZ